createdAt,value
2019-03-17T00:00:29.115Z,4.40
2019-03-17T00:03:00.681Z,5.93
2019-03-17T00:05:32.135Z,3.10
2019-03-17T00:08:02.588Z,5.50
2019-03-17T00:10:34.080Z,6.00
2019-03-17T00:13:06.297Z,3.67
2019-03-17T00:15:37.543Z,4.97
2019-03-17T00:18:15.336Z,6.63
2019-03-17T00:20:47.795Z,4.40
2019-03-17T00:23:19.572Z,4.27
2019-03-17T00:25:52.953Z,6.63
2019-03-17T00:28:31.264Z,7.17
2019-03-17T00:31:03.464Z,4.87
2019-03-17T00:33:39.075Z,3.63
2019-03-17T00:36:12.367Z,3.97
2019-03-17T00:38:45.872Z,5.73
2019-03-17T00:45:27.221Z,3.70
2019-03-17T00:51:05.280Z,5.37
2019-03-17T00:54:27.761Z,4.33
2019-03-17T00:56:58.361Z,4.60
2019-03-17T00:59:32.582Z,4.40
2019-03-17T01:02:02.777Z,4.50
2019-03-17T01:04:33.409Z,5.50
2019-03-17T01:07:14.078Z,4.13
2019-03-17T01:09:46.745Z,5.70
2019-03-17T01:12:23.735Z,4.90
2019-03-17T01:15:01.529Z,4.37
2019-03-17T01:17:40.458Z,6.37
2019-03-17T01:20:12.731Z,7.27
2019-03-17T01:22:53.774Z,4.70
2019-03-17T01:25:31.375Z,4.30
2019-03-17T01:28:16.023Z,11.80
2019-03-17T01:30:49.699Z,5.47
2019-03-17T01:33:29.868Z,5.43
2019-03-17T01:36:00.850Z,5.07
2019-03-17T01:38:32.430Z,4.47
2019-03-17T01:41:06.246Z,4.53
2019-03-17T01:43:36.773Z,4.60
2019-03-17T01:46:20.719Z,7.73
2019-03-17T01:48:53.237Z,5.83
2019-03-17T01:51:27.514Z,3.57
2019-03-17T01:53:59.147Z,5.20
2019-03-17T01:56:34.398Z,8.40
2019-03-17T01:59:31.765Z,7.33
2019-03-17T02:02:04.835Z,5.60
2019-03-17T02:04:35.753Z,9.63
2019-03-17T02:07:08.540Z,6.50
2019-03-17T02:09:39.759Z,5.50
2019-03-17T02:12:10.935Z,6.90
2019-03-17T02:14:41.545Z,4.93
2019-03-17T02:17:21.521Z,8.43
2019-03-17T02:19:53.813Z,5.03
2019-03-17T02:22:26.301Z,7.53
2019-03-17T02:25:03.252Z,5.03
2019-03-17T02:27:39.859Z,3.97
2019-03-17T02:30:12.039Z,8.67
2019-03-17T02:32:42.573Z,6.40
2019-03-17T02:35:15.253Z,5.37
2019-03-17T02:37:45.990Z,6.53
2019-03-17T02:40:20.156Z,6.77
2019-03-17T02:42:50.315Z,11.80
2019-03-17T02:45:21.116Z,6.87
2019-03-17T02:47:51.701Z,4.00
2019-03-17T02:50:22.590Z,5.80
2019-03-17T02:52:54.381Z,5.37
2019-03-17T02:55:25.779Z,6.70
2019-03-17T02:57:57.114Z,5.50
2019-03-17T03:00:28.978Z,5.90
2019-03-17T03:03:00.767Z,4.97
2019-03-17T03:05:33.281Z,6.20
2019-03-17T03:08:13.836Z,7.13
2019-03-17T03:10:46.569Z,7.93
2019-03-17T03:13:20.954Z,6.60
2019-03-17T03:15:51.906Z,4.97
2019-03-17T03:18:23.656Z,5.50
2019-03-17T03:20:56.038Z,6.53
2019-03-17T03:23:28.095Z,7.33
2019-03-17T03:25:59.954Z,4.90
2019-03-17T03:28:32.542Z,7.20
2019-03-17T03:31:02.720Z,7.30
2019-03-17T03:33:32.877Z,8.17
2019-03-17T03:36:10.615Z,8.90
2019-03-17T03:38:34.970Z,10.57
2019-03-17T03:41:06.109Z,8.23
2019-03-17T03:43:37.857Z,12.23
2019-03-17T03:46:08.698Z,8.23
2019-03-17T03:48:41.067Z,7.93
2019-03-17T03:51:12.689Z,10.57
2019-03-17T03:53:45.429Z,11.20
2019-03-17T03:56:29.243Z,9.53
2019-03-17T03:59:04.824Z,11.03
2019-03-17T04:01:37.994Z,9.57
2019-03-17T04:04:09.311Z,13.90
2019-03-17T04:06:39.491Z,15.93
2019-03-17T04:09:09.688Z,12.17
2019-03-17T04:11:39.910Z,13.70
2019-03-17T04:14:10.556Z,17.97
2019-03-17T04:16:41.872Z,12.73
2019-03-17T04:19:12.372Z,11.50
2019-03-17T04:21:42.851Z,10.20
2019-03-17T04:24:13.514Z,10.13
2019-03-17T04:26:44.123Z,9.93
2019-03-17T04:29:16.283Z,9.83
2019-03-17T04:31:47.815Z,11.30
2019-03-17T04:34:18.409Z,11.43
2019-03-17T04:36:48.669Z,14.33
2019-03-17T04:39:18.841Z,12.27
2019-03-17T04:41:49.534Z,10.20
2019-03-17T04:44:21.296Z,11.60
2019-03-17T04:46:56.164Z,10.30
2019-03-17T04:49:26.340Z,16.47
2019-03-17T04:51:57.210Z,11.57
2019-03-17T04:54:29.407Z,17.17
2019-03-17T04:57:02.934Z,17.57
2019-03-17T04:59:33.278Z,14.70
2019-03-17T05:02:06.756Z,16.67
2019-03-17T05:04:37.019Z,16.90
2019-03-17T05:07:08.494Z,17.77
2019-03-17T05:09:39.095Z,17.10
2019-03-17T05:12:10.417Z,28.33
2019-03-17T05:14:41.176Z,20.23
2019-03-17T05:17:13.430Z,19.73
2019-03-17T05:19:47.102Z,17.13
2019-03-17T05:22:17.687Z,15.37
2019-03-17T05:24:48.151Z,22.70
2019-03-17T05:27:25.387Z,15.67
2019-03-17T05:29:58.283Z,15.70
2019-03-17T05:32:30.907Z,10.03
2019-03-17T05:35:03.370Z,19.27
2019-03-17T05:37:35.063Z,8.87
2019-03-17T05:40:07.520Z,11.77
2019-03-17T05:42:40.671Z,13.30
2019-03-17T05:45:10.773Z,11.93
2019-03-17T05:47:44.571Z,16.43
2019-03-17T05:50:15.478Z,11.77
2019-03-17T05:52:46.292Z,9.37
2019-03-17T05:55:18.056Z,22.67
2019-03-17T05:57:49.254Z,10.67
2019-03-17T06:00:24.726Z,9.47
2019-03-17T06:02:55.841Z,9.83
2019-03-17T06:05:28.064Z,10.43
2019-03-17T06:07:58.695Z,8.10
2019-03-17T06:10:28.870Z,9.33
2019-03-17T06:12:59.061Z,10.60
2019-03-17T06:15:31.241Z,7.43
2019-03-17T06:18:02.823Z,10.47
2019-03-17T06:20:35.505Z,14.60
2019-03-17T06:23:09.084Z,9.70
2019-03-17T06:25:41.485Z,9.57
2019-03-17T06:28:26.918Z,6.53
2019-03-17T06:31:02.639Z,9.63
2019-03-17T06:33:35.748Z,5.70
2019-03-17T06:36:05.906Z,9.40
2019-03-17T06:38:36.968Z,7.03
2019-03-17T06:41:07.120Z,11.23
2019-03-17T06:43:37.701Z,8.23
2019-03-17T06:46:09.186Z,7.47
2019-03-17T06:48:40.916Z,6.17
2019-03-17T06:51:12.004Z,11.77
2019-03-17T06:53:55.923Z,5.77
2019-03-17T06:56:21.068Z,10.30
2019-03-17T06:58:53.695Z,9.33
2019-03-17T07:01:26.129Z,7.73
2019-03-17T07:03:58.741Z,5.40
2019-03-17T07:06:31.882Z,9.97
2019-03-17T07:09:05.329Z,9.53
2019-03-17T07:11:38.570Z,9.60
2019-03-17T07:14:16.375Z,6.77
2019-03-17T07:16:48.409Z,8.50
2019-03-17T07:19:20.047Z,12.93
2019-03-17T07:21:54.385Z,9.83
2019-03-17T07:24:25.293Z,6.30
2019-03-17T07:26:58.900Z,6.37
2019-03-17T07:29:30.561Z,4.93
2019-03-17T07:32:04.099Z,5.10
2019-03-17T07:34:34.292Z,4.50
2019-03-17T07:37:08.128Z,4.77
2019-03-17T07:39:49.061Z,6.00
2019-03-17T07:42:23.530Z,4.17
2019-03-17T07:44:56.879Z,6.40
2019-03-17T07:47:41.400Z,2.83
2019-03-17T07:50:15.032Z,2.13
2019-03-17T07:52:50.660Z,3.70
2019-03-17T07:55:23.603Z,2.47
2019-03-17T07:57:58.138Z,2.10
2019-03-17T08:00:32.112Z,3.90
2019-03-17T08:03:05.378Z,2.07
2019-03-17T08:05:36.467Z,2.47
2019-03-17T08:11:47.473Z,1.67
2019-03-17T08:14:31.020Z,1.67
2019-03-17T08:17:04.305Z,2.03
2019-03-17T08:19:36.035Z,4.90
2019-03-17T08:22:09.144Z,2.53
2019-03-17T08:24:43.289Z,5.40
2019-03-17T08:27:15.941Z,1.43
2019-03-17T08:29:49.762Z,1.53
2019-03-17T08:32:24.393Z,1.77
2019-03-17T08:34:55.091Z,1.17
2019-03-17T08:37:26.680Z,1.57
2019-03-17T08:40:04.289Z,2.03
2019-03-17T08:42:36.348Z,1.10
2019-03-17T08:45:08.194Z,2.53
2019-03-17T08:47:40.366Z,1.53
2019-03-17T08:50:12.694Z,2.47
2019-03-17T08:52:54.412Z,3.00
2019-03-17T08:55:28.655Z,1.50
2019-03-17T08:58:00.540Z,1.47
2019-03-17T09:00:30.968Z,1.83
2019-03-17T09:03:02.798Z,1.80
2019-03-17T09:05:38.223Z,3.23
2019-03-17T09:08:14.716Z,3.00
2019-03-17T09:10:54.316Z,4.13
2019-03-17T09:13:29.765Z,1.33
2019-03-17T09:19:25.866Z,6.80
2019-03-17T09:21:56.136Z,2.53
2019-03-17T09:24:32.200Z,3.77
2019-03-17T09:27:04.099Z,3.77
2019-03-17T09:29:36.823Z,1.43
2019-03-17T09:32:07.717Z,5.40
2019-03-17T09:34:39.916Z,1.87
2019-03-17T09:37:12.384Z,2.93
2019-03-17T09:39:45.390Z,2.10
2019-03-17T09:42:17.149Z,2.63
2019-03-17T09:44:48.189Z,2.47
2019-03-17T09:47:23.243Z,4.17
2019-03-17T09:49:53.441Z,2.53
2019-03-17T09:52:24.036Z,2.17
2019-03-17T09:55:03.737Z,2.77
2019-03-17T09:57:36.895Z,4.23
2019-03-17T10:00:10.764Z,3.23
2019-03-17T10:02:43.072Z,5.87
2019-03-17T10:05:16.985Z,3.23
2019-03-17T10:07:50.587Z,5.37
2019-03-17T10:10:27.881Z,5.73
2019-03-17T10:13:01.638Z,3.37
2019-03-17T10:15:35.265Z,5.33
2019-03-17T10:18:21.769Z,4.50
2019-03-17T10:20:57.940Z,5.73
2019-03-17T10:23:34.562Z,5.20
2019-03-17T10:26:07.830Z,5.23
2019-03-17T10:28:48.222Z,7.03
2019-03-17T10:31:22.054Z,5.50
2019-03-17T10:33:53.976Z,6.37
2019-03-17T10:36:26.438Z,4.37
2019-03-17T10:38:58.554Z,4.60
2019-03-17T10:41:28.684Z,4.07
2019-03-17T10:44:03.755Z,4.43
2019-03-17T10:46:35.383Z,5.57
2019-03-17T10:49:07.178Z,3.73
2019-03-17T10:51:47.994Z,7.63
2019-03-17T10:54:19.479Z,2.80
2019-03-17T10:56:50.465Z,4.13
2019-03-17T10:59:22.811Z,5.83
2019-03-17T11:01:54.264Z,3.70
2019-03-17T11:04:27.159Z,6.77
2019-03-17T11:06:59.135Z,4.17
2019-03-17T11:09:29.404Z,9.63
2019-03-17T11:11:59.937Z,4.07
2019-03-17T11:14:30.856Z,4.07
2019-03-17T11:17:01.303Z,5.80
2019-03-17T11:19:31.940Z,9.33
2019-03-17T11:22:05.299Z,6.93
2019-03-17T11:24:37.216Z,3.73
2019-03-17T11:27:09.802Z,6.77
2019-03-17T11:29:40.590Z,12.67
2019-03-17T11:32:11.223Z,7.40
2019-03-17T11:34:49.541Z,7.87
2019-03-17T11:37:24.572Z,4.73
2019-03-17T11:40:03.438Z,9.43
2019-03-17T11:42:36.202Z,8.57
2019-03-17T11:45:13.682Z,5.50
2019-03-17T11:47:44.827Z,4.57
2019-03-17T11:50:18.625Z,5.63
2019-03-17T11:52:53.767Z,4.67
2019-03-17T11:55:25.248Z,6.73
2019-03-17T11:57:55.794Z,4.27
2019-03-17T12:00:40.924Z,4.27
2019-03-17T12:03:33.906Z,4.83
2019-03-17T12:06:05.054Z,1.97
2019-03-17T12:08:36.713Z,5.30
2019-03-17T12:11:08.475Z,2.23
2019-03-17T12:13:42.808Z,4.23
2019-03-17T12:16:13.927Z,3.37
2019-03-17T12:18:45.837Z,3.53
2019-03-17T12:21:18.502Z,3.73
2019-03-17T12:23:51.534Z,3.87
2019-03-17T12:26:22.096Z,5.83
2019-03-17T12:28:53.878Z,6.90
2019-03-17T12:31:26.622Z,6.03
2019-03-17T12:33:56.842Z,3.50
2019-03-17T12:36:28.899Z,4.20
2019-03-17T12:39:01.468Z,3.80
2019-03-17T12:41:38.195Z,4.23
2019-03-17T12:44:08.967Z,4.60
2019-03-17T12:46:40.709Z,3.87
2019-03-17T12:49:14.439Z,3.73
2019-03-17T12:51:59.424Z,4.30
2019-03-17T12:54:36.377Z,2.33
2019-03-17T12:57:09.512Z,5.90
2019-03-17T12:59:42.599Z,4.07
2019-03-17T13:02:15.658Z,7.67
2019-03-17T13:04:48.023Z,7.13
2019-03-17T13:07:19.488Z,2.43
2019-03-17T13:09:50.660Z,3.27
2019-03-17T13:12:22.398Z,1.40
2019-03-17T13:14:53.336Z,1.17
2019-03-17T13:17:26.337Z,2.47
2019-03-17T13:19:57.951Z,1.40
2019-03-17T13:22:28.664Z,2.10
2019-03-17T13:25:39.480Z,1.77
2019-03-17T13:28:16.069Z,2.70
2019-03-17T13:30:46.230Z,1.73
2019-03-17T13:33:17.416Z,1.97
2019-03-17T13:35:50.418Z,5.80
2019-03-17T13:38:22.599Z,2.43
2019-03-17T13:40:54.032Z,1.40
2019-03-17T13:43:25.393Z,3.67
2019-03-17T13:45:56.128Z,2.07
2019-03-17T13:48:29.334Z,2.17
2019-03-17T13:51:00.448Z,2.80
2019-03-17T13:53:31.625Z,2.47
2019-03-17T13:56:02.538Z,2.60
2019-03-17T13:58:32.757Z,3.43
2019-03-17T14:01:02.917Z,3.60
2019-03-17T14:03:34.593Z,2.60
2019-03-17T14:06:05.147Z,2.27
2019-03-17T14:08:36.086Z,2.40
2019-03-17T14:11:09.015Z,2.00
2019-03-17T14:13:40.783Z,0.97
2019-03-17T14:16:11.013Z,1.30
2019-03-17T14:18:41.606Z,2.63
2019-03-17T14:21:11.791Z,2.53
2019-03-17T14:23:42.022Z,1.60
2019-03-17T14:26:12.201Z,6.97
2019-03-17T14:28:43.353Z,2.07
2019-03-17T14:31:13.552Z,2.70
2019-03-17T14:33:43.728Z,5.77
2019-03-17T14:36:14.726Z,2.33
2019-03-17T14:38:45.677Z,1.73
2019-03-17T14:41:17.269Z,3.73
2019-03-17T14:43:48.998Z,3.23
2019-03-17T14:46:20.994Z,1.60
2019-03-17T14:48:53.620Z,2.67
2019-03-17T14:51:24.256Z,2.37
2019-03-17T14:53:59.260Z,1.87
2019-03-17T14:56:32.587Z,5.17
2019-03-17T14:59:03.241Z,5.20
2019-03-17T15:01:38.961Z,2.53
2019-03-17T15:04:09.220Z,3.00
2019-03-17T15:06:40.573Z,2.13
2019-03-17T15:09:10.784Z,3.13
2019-03-17T15:11:41.684Z,5.27
2019-03-17T15:14:11.855Z,3.47
2019-03-17T15:16:46.485Z,5.43
2019-03-17T15:19:16.633Z,3.40
2019-03-17T15:21:46.787Z,3.37
2019-03-17T15:24:19.981Z,2.27
2019-03-17T15:26:50.590Z,2.23
2019-03-17T15:29:23.389Z,3.17
2019-03-17T15:31:54.068Z,2.60
2019-03-17T15:34:24.217Z,4.27
2019-03-17T15:36:54.805Z,6.90
2019-03-17T15:39:25.011Z,4.23
2019-03-17T15:41:57.420Z,6.10
2019-03-17T15:44:29.171Z,2.53
2019-03-17T15:47:01.380Z,3.40
2019-03-17T15:49:34.676Z,5.40
2019-03-17T15:52:06.059Z,4.40
2019-03-17T15:54:37.171Z,3.43
2019-03-17T15:57:07.343Z,8.03
2019-03-17T15:59:37.512Z,3.87
2019-03-17T16:02:07.673Z,6.00
2019-03-17T16:04:38.818Z,3.63
2019-03-17T16:07:11.283Z,4.20
2019-03-17T16:09:43.581Z,3.80
2019-03-17T16:12:15.997Z,2.70
2019-03-17T16:14:46.612Z,3.73
2019-03-17T16:17:17.035Z,3.50
2019-03-17T16:19:47.646Z,2.93
2019-03-17T16:22:17.788Z,6.93
2019-03-17T16:24:49.498Z,9.13
2019-03-17T16:27:21.974Z,3.80
2019-03-17T16:29:52.517Z,2.73
2019-03-17T16:32:25.405Z,6.03
2019-03-17T16:34:56.638Z,7.33
2019-03-17T16:37:26.834Z,5.23
2019-03-17T16:39:58.157Z,5.97
2019-03-17T16:42:32.144Z,3.40
2019-03-17T16:45:02.478Z,3.53
2019-03-17T16:47:34.877Z,5.73
2019-03-17T16:50:06.157Z,2.93
2019-03-17T16:52:39.705Z,5.60
2019-03-17T16:55:16.160Z,5.70
2019-03-17T16:57:50.606Z,4.17
2019-03-17T17:00:20.918Z,2.77
2019-03-17T17:02:52.267Z,2.47
2019-03-17T17:05:23.055Z,2.13
2019-03-17T17:07:53.737Z,3.23
2019-03-17T17:10:24.909Z,6.30
2019-03-17T17:12:55.533Z,4.30
2019-03-17T17:15:27.694Z,5.47
2019-03-17T17:17:58.224Z,5.07
2019-03-17T17:20:30.196Z,7.73
2019-03-17T17:23:00.730Z,6.30
2019-03-17T17:25:32.285Z,6.00
2019-03-17T17:28:02.440Z,7.63
2019-03-17T17:30:32.595Z,5.37
2019-03-17T17:33:03.213Z,4.03
2019-03-17T17:35:36.140Z,2.43
2019-03-17T17:38:06.306Z,2.97
2019-03-17T17:40:37.347Z,2.67
2019-03-17T17:43:09.023Z,1.20
2019-03-17T17:45:40.856Z,1.80
2019-03-17T17:48:11.737Z,2.90
2019-03-17T17:50:47.319Z,3.73
2019-03-17T17:53:20.558Z,2.10
2019-03-17T17:55:54.606Z,1.90
2019-03-17T17:58:25.338Z,4.57
2019-03-17T18:00:56.915Z,4.83
2019-03-17T18:03:27.111Z,4.43
2019-03-17T18:05:57.675Z,5.07
2019-03-17T18:08:28.410Z,7.40
2019-03-17T18:11:00.034Z,9.57
2019-03-17T18:13:30.195Z,6.23
2019-03-17T18:16:00.373Z,7.07
2019-03-17T18:18:30.987Z,4.77
2019-03-17T18:21:01.621Z,3.30
2019-03-17T18:23:35.021Z,4.47
2019-03-17T18:26:06.880Z,1.20
2019-03-17T18:28:39.883Z,2.20
2019-03-17T18:31:10.075Z,6.57
2019-03-17T18:33:42.690Z,5.33
2019-03-17T18:36:13.529Z,3.03
2019-03-17T18:38:45.377Z,3.10
2019-03-17T18:41:15.831Z,5.00
2019-03-17T18:43:47.092Z,4.83
2019-03-17T18:46:20.034Z,3.63
2019-03-17T18:48:52.346Z,4.97
2019-03-17T18:51:25.379Z,4.73
2019-03-17T18:54:01.211Z,3.63
2019-03-17T18:56:32.949Z,6.17
2019-03-17T18:59:18.004Z,3.43
2019-03-17T19:01:49.688Z,4.83
2019-03-17T19:04:22.779Z,3.23
2019-03-17T19:06:52.998Z,5.10
2019-03-17T19:09:23.671Z,4.40
2019-03-17T19:11:58.908Z,3.60
2019-03-17T19:14:29.118Z,5.43
2019-03-17T19:17:02.979Z,4.73
2019-03-17T19:19:33.586Z,6.17
2019-03-17T19:22:08.102Z,4.63
2019-03-17T19:24:46.430Z,5.00
2019-03-17T19:27:24.160Z,5.57
2019-03-17T19:29:57.719Z,6.93
2019-03-17T19:33:09.563Z,8.27
2019-03-17T19:35:47.591Z,7.40
2019-03-17T19:38:18.949Z,7.43
2019-03-17T19:40:49.882Z,6.27
2019-03-17T19:43:28.783Z,6.73
2019-03-17T19:46:12.378Z,8.97
2019-03-17T19:49:08.404Z,10.00
2019-03-17T19:51:41.801Z,8.57
2019-03-17T19:54:24.537Z,7.83
2019-03-17T19:57:28.756Z,7.97
2019-03-17T20:03:42.728Z,4.03
2019-03-17T20:06:13.496Z,3.97
2019-03-17T20:08:46.303Z,4.03
2019-03-17T20:12:19.433Z,7.23
2019-03-17T20:14:58.818Z,5.77
2019-03-17T20:18:09.355Z,7.00
2019-03-17T20:21:16.137Z,4.90
2019-03-17T20:23:50.504Z,4.50
2019-03-17T20:27:01.248Z,5.43
2019-03-17T20:30:18.991Z,6.43
2019-03-17T20:33:15.833Z,4.20
2019-03-17T20:35:48.998Z,8.33
2019-03-17T20:38:38.639Z,7.33
2019-03-17T20:42:00.677Z,6.63
2019-03-17T20:45:05.513Z,5.70
2019-03-17T20:48:19.992Z,8.03
2019-03-17T20:54:13.539Z,5.93
2019-03-17T20:56:48.686Z,6.27
2019-03-17T20:59:27.294Z,4.67
2019-03-17T21:02:02.332Z,4.13
2019-03-17T21:04:34.416Z,8.20
2019-03-17T21:07:05.012Z,6.77
2019-03-17T21:09:36.668Z,6.13
2019-03-17T21:12:11.459Z,7.73
2019-03-17T21:14:48.298Z,7.03
2019-03-17T21:17:19.950Z,12.70
2019-03-17T21:19:50.219Z,7.10
2019-03-17T21:22:22.032Z,9.50
2019-03-17T21:24:54.940Z,7.67
2019-03-17T21:27:26.685Z,6.83
2019-03-17T21:30:01.371Z,6.07
2019-03-17T21:32:31.927Z,5.80
2019-03-17T21:35:04.866Z,7.67
2019-03-17T21:37:35.689Z,8.97
2019-03-17T21:40:07.434Z,7.17
2019-03-17T21:42:46.627Z,8.07
2019-03-17T21:45:27.169Z,7.70
2019-03-17T21:48:02.582Z,5.50
2019-03-17T21:50:34.789Z,6.70
2019-03-17T21:53:04.997Z,5.50
2019-03-17T21:55:35.527Z,7.03
2019-03-17T21:58:08.611Z,5.67
2019-03-17T22:00:43.024Z,5.13
2019-03-17T22:03:19.774Z,7.03
2019-03-17T22:05:49.974Z,6.57
2019-03-17T22:08:22.987Z,6.77
2019-03-17T22:10:53.861Z,5.80
2019-03-17T22:13:26.044Z,6.03
2019-03-17T22:15:56.255Z,5.97
2019-03-17T22:18:35.915Z,6.33
2019-03-17T22:21:06.701Z,6.77
2019-03-17T22:23:39.432Z,4.63
2019-03-17T22:26:09.584Z,5.27
2019-03-17T22:28:43.507Z,5.33
2019-03-17T22:31:16.931Z,5.40
2019-03-17T22:33:51.464Z,7.77
2019-03-17T22:36:21.723Z,6.73
2019-03-17T22:38:57.049Z,4.30
2019-03-17T22:41:36.693Z,5.40
2019-03-17T22:44:23.941Z,6.67
2019-03-17T22:46:46.875Z,5.50
2019-03-17T22:49:40.950Z,7.83
2019-03-17T22:52:14.197Z,4.87
2019-03-17T22:54:51.745Z,10.13
2019-03-17T23:00:59.210Z,8.87
2019-03-17T23:03:30.492Z,5.87
2019-03-17T23:06:01.959Z,6.20
2019-03-17T23:08:38.289Z,9.03
2019-03-17T23:11:11.353Z,6.80
2019-03-17T23:13:46.646Z,9.07
2019-03-17T23:16:21.276Z,7.90
2019-03-17T23:18:57.134Z,14.00
2019-03-17T23:21:28.873Z,12.83
2019-03-17T23:24:00.945Z,9.80
2019-03-17T23:26:31.169Z,9.80
2019-03-17T23:29:02.346Z,7.17
2019-03-17T23:31:32.639Z,9.97
2019-03-17T23:37:23.034Z,9.73
2019-03-17T23:39:57.000Z,8.73
2019-03-17T23:43:09.160Z,5.97
2019-03-17T23:47:08.288Z,4.80
2019-03-17T23:50:26.262Z,6.97
2019-03-17T23:54:00.279Z,5.70
2019-03-17T23:56:37.474Z,4.93
2019-03-17T23:59:12.363Z,5.87
